sensor_id;sensor_type;location;lat;lon;timestamp;P1;durP1;ratioP1;P2;durP2;ratioP2
19434;SDS011;9853;50.848;4.108;2022-08-14T00:00:07;7.32;;;1.70;;
19434;SDS011;9853;50.848;4.108;2022-08-14T00:02:14;7.40;;;1.88;;
19434;SDS011;9853;50.848;4.108;2022-08-14T00:04:15;3.08;;;1.90;;
19434;SDS011;9853;50.848;4.108;2022-08-14T00:06:15;9.85;;;1.73;;
19434;SDS011;9853;50.848;4.108;2022-08-14T00:08:16;9.20;;;1.75;;
19434;SDS011;9853;50.848;4.108;2022-08-14T00:10:19;5.40;;;1.80;;
19434;SDS011;9853;50.848;4.108;2022-08-14T00:12:21;4.80;;;1.83;;
19434;SDS011;9853;50.848;4.108;2022-08-14T00:14:23;7.95;;;1.80;;
19434;SDS011;9853;50.848;4.108;2022-08-14T00:16:25;2.92;;;1.90;;
19434;SDS011;9853;50.848;4.108;2022-08-14T00:18:27;3.83;;;1.95;;
19434;SDS011;9853;50.848;4.108;2022-08-14T00:20:29;4.97;;;2.00;;
19434;SDS011;9853;50.848;4.108;2022-08-14T00:22:32;4.40;;;1.73;;
19434;SDS011;9853;50.848;4.108;2022-08-14T00:24:33;6.15;;;1.90;;
19434;SDS011;9853;50.848;4.108;2022-08-14T00:26:34;2.50;;;1.88;;
19434;SDS011;9853;50.848;4.108;2022-08-14T00:28:35;4.25;;;2.00;;
19434;SDS011;9853;50.848;4.108;2022-08-14T00:30:36;4.10;;;1.95;;
19434;SDS011;9853;50.848;4.108;2022-08-14T00:32:37;6.80;;;2.10;;
19434;SDS011;9853;50.848;4.108;2022-08-14T00:34:38;7.95;;;1.73;;
19434;SDS011;9853;50.848;4.108;2022-08-14T00:36:39;6.90;;;1.63;;
19434;SDS011;9853;50.848;4.108;2022-08-14T00:38:39;7.97;;;1.80;;
19434;SDS011;9853;50.848;4.108;2022-08-14T00:40:41;4.47;;;1.70;;
19434;SDS011;9853;50.848;4.108;2022-08-14T00:42:42;4.18;;;2.10;;
19434;SDS011;9853;50.848;4.108;2022-08-14T00:44:43;4.32;;;1.90;;
19434;SDS011;9853;50.848;4.108;2022-08-14T00:46:44;5.43;;;1.88;;
19434;SDS011;9853;50.848;4.108;2022-08-14T00:48:45;4.43;;;1.83;;
19434;SDS011;9853;50.848;4.108;2022-08-14T00:50:47;3.45;;;1.77;;
19434;SDS011;9853;50.848;4.108;2022-08-14T00:52:48;2.97;;;1.60;;
19434;SDS011;9853;50.848;4.108;2022-08-14T00:54:51;3.15;;;1.67;;
19434;SDS011;9853;50.848;4.108;2022-08-14T00:56:53;4.22;;;1.95;;
19434;SDS011;9853;50.848;4.108;2022-08-14T00:58:54;4.35;;;1.70;;
19434;SDS011;9853;50.848;4.108;2022-08-14T01:00:56;3.90;;;1.92;;
19434;SDS011;9853;50.848;4.108;2022-08-14T01:03:00;7.07;;;1.65;;
19434;SDS011;9853;50.848;4.108;2022-08-14T01:05:02;2.35;;;1.75;;
19434;SDS011;9853;50.848;4.108;2022-08-14T01:07:06;5.10;;;1.90;;
19434;SDS011;9853;50.848;4.108;2022-08-14T01:09:07;1.88;;;1.50;;
19434;SDS011;9853;50.848;4.108;2022-08-14T01:11:10;2.03;;;1.50;;
19434;SDS011;9853;50.848;4.108;2022-08-14T01:13:15;7.28;;;1.70;;
19434;SDS011;9853;50.848;4.108;2022-08-14T01:15:27;2.85;;;1.52;;
19434;SDS011;9853;50.848;4.108;2022-08-14T01:17:28;6.45;;;1.80;;
19434;SDS011;9853;50.848;4.108;2022-08-14T01:19:49;3.72;;;1.45;;
19434;SDS011;9853;50.848;4.108;2022-08-14T01:22:10;3.90;;;1.63;;
19434;SDS011;9853;50.848;4.108;2022-08-14T01:24:10;4.18;;;1.50;;
19434;SDS011;9853;50.848;4.108;2022-08-14T01:26:14;4.93;;;1.42;;
19434;SDS011;9853;50.848;4.108;2022-08-14T01:28:19;4.28;;;1.67;;
19434;SDS011;9853;50.848;4.108;2022-08-14T01:30:21;2.08;;;1.40;;
19434;SDS011;9853;50.848;4.108;2022-08-14T01:32:23;6.40;;;1.63;;
19434;SDS011;9853;50.848;4.108;2022-08-14T01:34:24;4.22;;;1.40;;
19434;SDS011;9853;50.848;4.108;2022-08-14T01:36:26;3.53;;;1.45;;
19434;SDS011;9853;50.848;4.108;2022-08-14T01:38:36;3.80;;;1.50;;
19434;SDS011;9853;50.848;4.108;2022-08-14T01:40:37;1.52;;;1.40;;
19434;SDS011;9853;50.848;4.108;2022-08-14T01:42:40;3.45;;;1.27;;
19434;SDS011;9853;50.848;4.108;2022-08-14T01:44:41;4.70;;;1.40;;
19434;SDS011;9853;50.848;4.108;2022-08-14T01:46:43;2.17;;;1.17;;
19434;SDS011;9853;50.848;4.108;2022-08-14T01:48:45;2.72;;;1.35;;
19434;SDS011;9853;50.848;4.108;2022-08-14T01:50:47;1.70;;;1.35;;
19434;SDS011;9853;50.848;4.108;2022-08-14T01:52:48;1.40;;;1.25;;
19434;SDS011;9853;50.848;4.108;2022-08-14T01:54:49;3.40;;;1.40;;
19434;SDS011;9853;50.848;4.108;2022-08-14T01:56:54;5.85;;;1.40;;
19434;SDS011;9853;50.848;4.108;2022-08-14T01:58:56;2.88;;;1.48;;
19434;SDS011;9853;50.848;4.108;2022-08-14T02:00:56;2.45;;;1.38;;
19434;SDS011;9853;50.848;4.108;2022-08-14T02:02:57;1.45;;;1.20;;
19434;SDS011;9853;50.848;4.108;2022-08-14T02:04:58;5.40;;;1.65;;
19434;SDS011;9853;50.848;4.108;2022-08-14T02:07:00;5.97;;;1.50;;
19434;SDS011;9853;50.848;4.108;2022-08-14T02:09:03;3.58;;;1.30;;
19434;SDS011;9853;50.848;4.108;2022-08-14T02:11:05;2.10;;;1.40;;
19434;SDS011;9853;50.848;4.108;2022-08-14T02:13:21;2.25;;;1.20;;
19434;SDS011;9853;50.848;4.108;2022-08-14T02:15:22;3.15;;;1.50;;
19434;SDS011;9853;50.848;4.108;2022-08-14T02:17:23;2.55;;;1.30;;
19434;SDS011;9853;50.848;4.108;2022-08-14T02:19:24;3.83;;;1.60;;
19434;SDS011;9853;50.848;4.108;2022-08-14T02:21:27;1.98;;;1.48;;
19434;SDS011;9853;50.848;4.108;2022-08-14T02:23:30;2.80;;;1.75;;
19434;SDS011;9853;50.848;4.108;2022-08-14T02:25:31;5.80;;;1.50;;
19434;SDS011;9853;50.848;4.108;2022-08-14T02:27:32;2.92;;;1.20;;
19434;SDS011;9853;50.848;4.108;2022-08-14T02:29:33;1.20;;;1.10;;
19434;SDS011;9853;50.848;4.108;2022-08-14T02:31:35;4.30;;;1.40;;
19434;SDS011;9853;50.848;4.108;2022-08-14T02:33:37;6.20;;;1.42;;
19434;SDS011;9853;50.848;4.108;2022-08-14T02:35:41;1.40;;;1.30;;
19434;SDS011;9853;50.848;4.108;2022-08-14T02:37:42;7.93;;;1.58;;
19434;SDS011;9853;50.848;4.108;2022-08-14T02:39:47;3.50;;;1.40;;
19434;SDS011;9853;50.848;4.108;2022-08-14T02:41:49;5.25;;;1.40;;
19434;SDS011;9853;50.848;4.108;2022-08-14T02:43:51;5.43;;;1.30;;
19434;SDS011;9853;50.848;4.108;2022-08-14T02:45:52;5.47;;;1.30;;
19434;SDS011;9853;50.848;4.108;2022-08-14T02:47:52;4.00;;;1.20;;
19434;SDS011;9853;50.848;4.108;2022-08-14T02:49:53;3.78;;;1.30;;
19434;SDS011;9853;50.848;4.108;2022-08-14T02:51:55;5.15;;;1.20;;
19434;SDS011;9853;50.848;4.108;2022-08-14T02:53:56;5.65;;;1.40;;
19434;SDS011;9853;50.848;4.108;2022-08-14T02:55:58;3.78;;;1.20;;
19434;SDS011;9853;50.848;4.108;2022-08-14T02:57:59;1.70;;;1.10;;
19434;SDS011;9853;50.848;4.108;2022-08-14T03:00:00;4.35;;;1.20;;
19434;SDS011;9853;50.848;4.108;2022-08-14T03:02:03;7.90;;;1.38;;
19434;SDS011;9853;50.848;4.108;2022-08-14T03:04:04;4.88;;;1.23;;
19434;SDS011;9853;50.848;4.108;2022-08-14T03:06:06;1.45;;;1.30;;
19434;SDS011;9853;50.848;4.108;2022-08-14T03:08:10;6.22;;;1.10;;
19434;SDS011;9853;50.848;4.108;2022-08-14T03:10:12;1.25;;;1.15;;
19434;SDS011;9853;50.848;4.108;2022-08-14T03:12:13;4.80;;;1.40;;
19434;SDS011;9853;50.848;4.108;2022-08-14T03:14:14;1.30;;;1.00;;
19434;SDS011;9853;50.848;4.108;2022-08-14T03:16:15;5.95;;;1.27;;
19434;SDS011;9853;50.848;4.108;2022-08-14T03:18:18;2.40;;;1.40;;
19434;SDS011;9853;50.848;4.108;2022-08-14T03:20:23;2.75;;;1.20;;
19434;SDS011;9853;50.848;4.108;2022-08-14T03:22:25;6.53;;;1.30;;
19434;SDS011;9853;50.848;4.108;2022-08-14T03:24:28;2.97;;;1.40;;
19434;SDS011;9853;50.848;4.108;2022-08-14T03:26:29;2.03;;;1.20;;
19434;SDS011;9853;50.848;4.108;2022-08-14T03:28:29;3.83;;;1.17;;
19434;SDS011;9853;50.848;4.108;2022-08-14T03:30:30;3.47;;;1.15;;
19434;SDS011;9853;50.848;4.108;2022-08-14T03:32:31;3.70;;;1.17;;
19434;SDS011;9853;50.848;4.108;2022-08-14T03:34:32;5.38;;;1.30;;
19434;SDS011;9853;50.848;4.108;2022-08-14T03:36:33;7.13;;;1.58;;
19434;SDS011;9853;50.848;4.108;2022-08-14T03:38:33;2.25;;;1.30;;
19434;SDS011;9853;50.848;4.108;2022-08-14T03:40:41;1.98;;;1.40;;
19434;SDS011;9853;50.848;4.108;2022-08-14T03:42:42;2.60;;;1.40;;
19434;SDS011;9853;50.848;4.108;2022-08-14T03:44:43;4.13;;;1.20;;
19434;SDS011;9853;50.848;4.108;2022-08-14T03:46:44;2.63;;;1.20;;
19434;SDS011;9853;50.848;4.108;2022-08-14T03:48:45;2.70;;;1.30;;
19434;SDS011;9853;50.848;4.108;2022-08-14T03:50:46;1.65;;;1.25;;
19434;SDS011;9853;50.848;4.108;2022-08-14T03:52:50;2.47;;;1.10;;
19434;SDS011;9853;50.848;4.108;2022-08-14T03:54:51;3.80;;;1.17;;
19434;SDS011;9853;50.848;4.108;2022-08-14T03:56:52;1.52;;;1.30;;
19434;SDS011;9853;50.848;4.108;2022-08-14T03:58:55;3.53;;;1.33;;
19434;SDS011;9853;50.848;4.108;2022-08-14T04:00:58;3.17;;;1.25;;
19434;SDS011;9853;50.848;4.108;2022-08-14T04:03:00;1.90;;;1.48;;
19434;SDS011;9853;50.848;4.108;2022-08-14T04:05:08;3.70;;;1.40;;
19434;SDS011;9853;50.848;4.108;2022-08-14T04:07:09;4.03;;;1.48;;
19434;SDS011;9853;50.848;4.108;2022-08-14T04:09:10;1.42;;;1.30;;
19434;SDS011;9853;50.848;4.108;2022-08-14T04:11:10;4.00;;;1.30;;
19434;SDS011;9853;50.848;4.108;2022-08-14T04:13:12;3.28;;;1.23;;
19434;SDS011;9853;50.848;4.108;2022-08-14T04:15:17;4.10;;;1.33;;
19434;SDS011;9853;50.848;4.108;2022-08-14T04:17:19;4.78;;;1.35;;
19434;SDS011;9853;50.848;4.108;2022-08-14T04:19:19;4.15;;;1.20;;
19434;SDS011;9853;50.848;4.108;2022-08-14T04:21:23;2.33;;;1.20;;
19434;SDS011;9853;50.848;4.108;2022-08-14T04:23:28;3.58;;;1.27;;
19434;SDS011;9853;50.848;4.108;2022-08-14T04:25:29;1.90;;;1.40;;
19434;SDS011;9853;50.848;4.108;2022-08-14T04:27:35;3.83;;;1.40;;
19434;SDS011;9853;50.848;4.108;2022-08-14T04:29:39;4.78;;;1.48;;
19434;SDS011;9853;50.848;4.108;2022-08-14T04:31:42;3.70;;;1.30;;
19434;SDS011;9853;50.848;4.108;2022-08-14T04:33:43;4.65;;;1.50;;
19434;SDS011;9853;50.848;4.108;2022-08-14T04:35:44;4.57;;;1.35;;
19434;SDS011;9853;50.848;4.108;2022-08-14T04:37:45;3.90;;;1.40;;
19434;SDS011;9853;50.848;4.108;2022-08-14T04:40:05;5.38;;;1.42;;
19434;SDS011;9853;50.848;4.108;2022-08-14T04:42:25;2.28;;;1.42;;
19434;SDS011;9853;50.848;4.108;2022-08-14T04:44:44;5.85;;;1.52;;
19434;SDS011;9853;50.848;4.108;2022-08-14T04:46:45;2.70;;;1.50;;
19434;SDS011;9853;50.848;4.108;2022-08-14T04:49:05;3.80;;;1.50;;
19434;SDS011;9853;50.848;4.108;2022-08-14T04:51:09;3.20;;;1.40;;
19434;SDS011;9853;50.848;4.108;2022-08-14T04:53:13;7.13;;;1.55;;
19434;SDS011;9853;50.848;4.108;2022-08-14T04:55:16;1.73;;;1.33;;
19434;SDS011;9853;50.848;4.108;2022-08-14T04:57:17;5.03;;;1.27;;
19434;SDS011;9853;50.848;4.108;2022-08-14T04:59:17;2.25;;;1.58;;
19434;SDS011;9853;50.848;4.108;2022-08-14T05:01:18;4.80;;;1.48;;
19434;SDS011;9853;50.848;4.108;2022-08-14T05:03:20;3.33;;;1.50;;
19434;SDS011;9853;50.848;4.108;2022-08-14T05:05:23;5.28;;;1.45;;
19434;SDS011;9853;50.848;4.108;2022-08-14T05:07:24;2.33;;;1.38;;
19434;SDS011;9853;50.848;4.108;2022-08-14T05:09:25;5.03;;;1.60;;
19434;SDS011;9853;50.848;4.108;2022-08-14T05:11:35;4.15;;;1.75;;
19434;SDS011;9853;50.848;4.108;2022-08-14T05:13:36;2.45;;;1.27;;
19434;SDS011;9853;50.848;4.108;2022-08-14T05:15:37;2.10;;;1.55;;
19434;SDS011;9853;50.848;4.108;2022-08-14T05:17:41;2.45;;;1.67;;
19434;SDS011;9853;50.848;4.108;2022-08-14T05:19:42;3.55;;;1.38;;
19434;SDS011;9853;50.848;4.108;2022-08-14T05:21:43;3.97;;;1.30;;
19434;SDS011;9853;50.848;4.108;2022-08-14T05:23:44;5.82;;;1.60;;
19434;SDS011;9853;50.848;4.108;2022-08-14T05:25:45;3.08;;;1.38;;
19434;SDS011;9853;50.848;4.108;2022-08-14T05:27:47;7.07;;;1.40;;
19434;SDS011;9853;50.848;4.108;2022-08-14T05:29:48;2.88;;;1.40;;
19434;SDS011;9853;50.848;4.108;2022-08-14T05:31:49;3.85;;;1.73;;
19434;SDS011;9853;50.848;4.108;2022-08-14T05:33:50;3.75;;;1.60;;
19434;SDS011;9853;50.848;4.108;2022-08-14T05:35:51;2.40;;;1.50;;
19434;SDS011;9853;50.848;4.108;2022-08-14T05:37:52;3.97;;;1.50;;
19434;SDS011;9853;50.848;4.108;2022-08-14T05:39:53;2.80;;;1.30;;
19434;SDS011;9853;50.848;4.108;2022-08-14T05:41:54;3.70;;;1.30;;
19434;SDS011;9853;50.848;4.108;2022-08-14T05:43:55;6.35;;;1.60;;
19434;SDS011;9853;50.848;4.108;2022-08-14T05:45:56;5.38;;;1.50;;
19434;SDS011;9853;50.848;4.108;2022-08-14T05:47:58;1.83;;;1.40;;
19434;SDS011;9853;50.848;4.108;2022-08-14T05:49:59;4.72;;;1.40;;
19434;SDS011;9853;50.848;4.108;2022-08-14T05:52:00;6.22;;;1.67;;
19434;SDS011;9853;50.848;4.108;2022-08-14T05:54:01;1.92;;;1.30;;
19434;SDS011;9853;50.848;4.108;2022-08-14T05:56:02;5.30;;;1.40;;
19434;SDS011;9853;50.848;4.108;2022-08-14T05:58:04;2.58;;;1.27;;
19434;SDS011;9853;50.848;4.108;2022-08-14T06:00:07;1.92;;;1.15;;
19434;SDS011;9853;50.848;4.108;2022-08-14T06:02:08;3.45;;;1.50;;
19434;SDS011;9853;50.848;4.108;2022-08-14T06:04:09;6.20;;;1.40;;
19434;SDS011;9853;50.848;4.108;2022-08-14T06:06:10;1.42;;;1.30;;
19434;SDS011;9853;50.848;4.108;2022-08-14T06:08:18;4.22;;;1.52;;
19434;SDS011;9853;50.848;4.108;2022-08-14T06:10:19;3.13;;;1.50;;
19434;SDS011;9853;50.848;4.108;2022-08-14T06:12:20;2.13;;;1.52;;
19434;SDS011;9853;50.848;4.108;2022-08-14T06:14:21;7.22;;;1.42;;
19434;SDS011;9853;50.848;4.108;2022-08-14T06:16:22;9.90;;;1.80;;
19434;SDS011;9853;50.848;4.108;2022-08-14T06:18:23;3.05;;;1.42;;
19434;SDS011;9853;50.848;4.108;2022-08-14T06:20:24;4.88;;;1.58;;
19434;SDS011;9853;50.848;4.108;2022-08-14T06:22:25;2.60;;;1.40;;
19434;SDS011;9853;50.848;4.108;2022-08-14T06:24:26;2.63;;;1.40;;
19434;SDS011;9853;50.848;4.108;2022-08-14T06:26:27;2.17;;;1.55;;
19434;SDS011;9853;50.848;4.108;2022-08-14T06:28:28;4.43;;;1.63;;
19434;SDS011;9853;50.848;4.108;2022-08-14T06:30:31;4.03;;;1.25;;
19434;SDS011;9853;50.848;4.108;2022-08-14T06:32:33;10.13;;;1.70;;
19434;SDS011;9853;50.848;4.108;2022-08-14T06:34:34;3.30;;;1.55;;
19434;SDS011;9853;50.848;4.108;2022-08-14T06:36:38;3.15;;;1.50;;
19434;SDS011;9853;50.848;4.108;2022-08-14T06:38:39;3.58;;;1.50;;
19434;SDS011;9853;50.848;4.108;2022-08-14T06:40:40;2.30;;;1.42;;
19434;SDS011;9853;50.848;4.108;2022-08-14T06:42:40;2.25;;;1.10;;
19434;SDS011;9853;50.848;4.108;2022-08-14T06:44:41;3.78;;;1.80;;
19434;SDS011;9853;50.848;4.108;2022-08-14T06:46:44;2.70;;;1.58;;
19434;SDS011;9853;50.848;4.108;2022-08-14T06:48:47;4.03;;;1.60;;
19434;SDS011;9853;50.848;4.108;2022-08-14T06:50:48;5.30;;;1.65;;
19434;SDS011;9853;50.848;4.108;2022-08-14T06:52:50;2.33;;;1.50;;
19434;SDS011;9853;50.848;4.108;2022-08-14T06:54:51;3.38;;;1.70;;
19434;SDS011;9853;50.848;4.108;2022-08-14T06:56:52;4.80;;;1.48;;
19434;SDS011;9853;50.848;4.108;2022-08-14T06:58:53;4.25;;;1.52;;
19434;SDS011;9853;50.848;4.108;2022-08-14T07:00:57;2.30;;;1.60;;
19434;SDS011;9853;50.848;4.108;2022-08-14T07:03:16;3.45;;;1.60;;
19434;SDS011;9853;50.848;4.108;2022-08-14T07:05:35;2.83;;;1.88;;
19434;SDS011;9853;50.848;4.108;2022-08-14T07:07:46;3.90;;;1.80;;
19434;SDS011;9853;50.848;4.108;2022-08-14T07:09:47;3.55;;;1.58;;
19434;SDS011;9853;50.848;4.108;2022-08-14T07:11:49;3.72;;;1.90;;
19434;SDS011;9853;50.848;4.108;2022-08-14T07:13:50;8.05;;;1.73;;
19434;SDS011;9853;50.848;4.108;2022-08-14T07:15:52;6.50;;;2.10;;
19434;SDS011;9853;50.848;4.108;2022-08-14T07:17:54;12.43;;;2.20;;
19434;SDS011;9853;50.848;4.108;2022-08-14T07:19:55;10.27;;;2.00;;
19434;SDS011;9853;50.848;4.108;2022-08-14T07:21:56;5.40;;;2.15;;
19434;SDS011;9853;50.848;4.108;2022-08-14T07:23:59;3.08;;;2.28;;
19434;SDS011;9853;50.848;4.108;2022-08-14T07:26:03;3.25;;;2.40;;
19434;SDS011;9853;50.848;4.108;2022-08-14T07:28:16;5.55;;;2.30;;
19434;SDS011;9853;50.848;4.108;2022-08-14T07:30:28;4.78;;;2.40;;
19434;SDS011;9853;50.848;4.108;2022-08-14T07:32:31;3.47;;;2.65;;
19434;SDS011;9853;50.848;4.108;2022-08-14T07:34:56;3.63;;;2.88;;
19434;SDS011;9853;50.848;4.108;2022-08-14T07:36:57;5.93;;;2.53;;
19434;SDS011;9853;50.848;4.108;2022-08-14T07:38:58;5.53;;;2.70;;
19434;SDS011;9853;50.848;4.108;2022-08-14T07:40:59;8.35;;;2.70;;
19434;SDS011;9853;50.848;4.108;2022-08-14T07:43:01;12.27;;;2.92;;
19434;SDS011;9853;50.848;4.108;2022-08-14T07:45:04;5.28;;;2.80;;
19434;SDS011;9853;50.848;4.108;2022-08-14T07:47:05;5.60;;;2.65;;
19434;SDS011;9853;50.848;4.108;2022-08-14T07:49:06;3.97;;;2.25;;
19434;SDS011;9853;50.848;4.108;2022-08-14T07:51:08;4.25;;;2.58;;
19434;SDS011;9853;50.848;4.108;2022-08-14T07:53:09;4.00;;;1.98;;
19434;SDS011;9853;50.848;4.108;2022-08-14T07:55:14;4.05;;;2.10;;
19434;SDS011;9853;50.848;4.108;2022-08-14T07:57:17;4.65;;;2.28;;
19434;SDS011;9853;50.848;4.108;2022-08-14T07:59:20;4.63;;;2.40;;
19434;SDS011;9853;50.848;4.108;2022-08-14T08:01:23;6.22;;;2.28;;
19434;SDS011;9853;50.848;4.108;2022-08-14T08:03:25;8.20;;;2.35;;
19434;SDS011;9853;50.848;4.108;2022-08-14T08:05:27;8.20;;;3.20;;
19434;SDS011;9853;50.848;4.108;2022-08-14T08:07:30;3.25;;;2.30;;
19434;SDS011;9853;50.848;4.108;2022-08-14T08:09:31;7.53;;;2.55;;
19434;SDS011;9853;50.848;4.108;2022-08-14T08:11:47;2.85;;;2.20;;
19434;SDS011;9853;50.848;4.108;2022-08-14T08:13:52;6.20;;;2.20;;
19434;SDS011;9853;50.848;4.108;2022-08-14T08:15:56;6.75;;;2.85;;
19434;SDS011;9853;50.848;4.108;2022-08-14T08:17:58;6.85;;;2.45;;
19434;SDS011;9853;50.848;4.108;2022-08-14T08:20:14;5.55;;;2.28;;
19434;SDS011;9853;50.848;4.108;2022-08-14T08:22:17;6.57;;;2.60;;
19434;SDS011;9853;50.848;4.108;2022-08-14T08:24:20;2.83;;;2.28;;
19434;SDS011;9853;50.848;4.108;2022-08-14T08:26:27;5.05;;;2.78;;
19434;SDS011;9853;50.848;4.108;2022-08-14T08:28:29;7.75;;;2.33;;
19434;SDS011;9853;50.848;4.108;2022-08-14T08:30:30;5.07;;;2.40;;
19434;SDS011;9853;50.848;4.108;2022-08-14T08:32:42;3.50;;;2.10;;
19434;SDS011;9853;50.848;4.108;2022-08-14T08:34:43;4.82;;;2.35;;
19434;SDS011;9853;50.848;4.108;2022-08-14T08:36:45;3.47;;;2.20;;
19434;SDS011;9853;50.848;4.108;2022-08-14T08:38:48;4.05;;;2.10;;
19434;SDS011;9853;50.848;4.108;2022-08-14T08:40:50;4.88;;;2.00;;
19434;SDS011;9853;50.848;4.108;2022-08-14T08:42:54;9.13;;;2.10;;
19434;SDS011;9853;50.848;4.108;2022-08-14T08:44:55;5.70;;;2.05;;
19434;SDS011;9853;50.848;4.108;2022-08-14T08:46:57;5.47;;;1.90;;
19434;SDS011;9853;50.848;4.108;2022-08-14T08:49:00;3.75;;;2.08;;
19434;SDS011;9853;50.848;4.108;2022-08-14T08:51:01;7.47;;;1.90;;
19434;SDS011;9853;50.848;4.108;2022-08-14T08:53:03;4.18;;;1.83;;
19434;SDS011;9853;50.848;4.108;2022-08-14T08:55:06;3.65;;;1.90;;
19434;SDS011;9853;50.848;4.108;2022-08-14T08:57:10;7.22;;;1.90;;
19434;SDS011;9853;50.848;4.108;2022-08-14T08:59:30;3.33;;;2.00;;
19434;SDS011;9853;50.848;4.108;2022-08-14T09:01:32;2.08;;;1.80;;
19434;SDS011;9853;50.848;4.108;2022-08-14T09:03:35;2.28;;;1.70;;
19434;SDS011;9853;50.848;4.108;2022-08-14T09:05:36;1.95;;;1.77;;
19434;SDS011;9853;50.848;4.108;2022-08-14T09:07:48;2.15;;;1.90;;
19434;SDS011;9853;50.848;4.108;2022-08-14T09:09:52;1.70;;;1.60;;
19434;SDS011;9853;50.848;4.108;2022-08-14T09:11:56;2.42;;;1.80;;
19434;SDS011;9853;50.848;4.108;2022-08-14T09:13:58;2.75;;;1.70;;
19434;SDS011;9853;50.848;4.108;2022-08-14T09:15:59;2.40;;;1.98;;
19434;SDS011;9853;50.848;4.108;2022-08-14T09:18:01;3.38;;;2.00;;
19434;SDS011;9853;50.848;4.108;2022-08-14T09:20:02;14.00;;;2.13;;
19434;SDS011;9853;50.848;4.108;2022-08-14T09:22:04;7.10;;;1.85;;
19434;SDS011;9853;50.848;4.108;2022-08-14T09:24:06;4.80;;;1.65;;
19434;SDS011;9853;50.848;4.108;2022-08-14T09:26:07;8.95;;;1.90;;
19434;SDS011;9853;50.848;4.108;2022-08-14T09:28:09;4.28;;;2.00;;
19434;SDS011;9853;50.848;4.108;2022-08-14T09:30:10;1.80;;;1.33;;
19434;SDS011;9853;50.848;4.108;2022-08-14T09:32:11;2.55;;;1.50;;
19434;SDS011;9853;50.848;4.108;2022-08-14T09:34:21;6.07;;;1.60;;
19434;SDS011;9853;50.848;4.108;2022-08-14T09:36:51;2.08;;;1.50;;
19434;SDS011;9853;50.848;4.108;2022-08-14T09:41:33;2.05;;;1.45;;
19434;SDS011;9853;50.848;4.108;2022-08-14T09:44:29;3.40;;;1.58;;
19434;SDS011;9853;50.848;4.108;2022-08-14T09:46:28;3.08;;;1.75;;
19434;SDS011;9853;50.848;4.108;2022-08-14T09:48:30;3.45;;;1.55;;
19434;SDS011;9853;50.848;4.108;2022-08-14T09:50:31;3.70;;;1.50;;
19434;SDS011;9853;50.848;4.108;2022-08-14T09:53:03;1.75;;;1.33;;
19434;SDS011;9853;50.848;4.108;2022-08-14T09:55:14;4.10;;;1.42;;
19434;SDS011;9853;50.848;4.108;2022-08-14T09:57:26;2.78;;;1.25;;
19434;SDS011;9853;50.848;4.108;2022-08-14T09:59:38;1.30;;;1.20;;
19434;SDS011;9853;50.848;4.108;2022-08-14T10:01:41;4.38;;;1.73;;
19434;SDS011;9853;50.848;4.108;2022-08-14T10:03:50;3.67;;;1.20;;
19434;SDS011;9853;50.848;4.108;2022-08-14T10:06:02;2.08;;;1.40;;
19434;SDS011;9853;50.848;4.108;2022-08-14T10:08:17;6.28;;;1.15;;
19434;SDS011;9853;50.848;4.108;2022-08-14T10:10:27;1.80;;;1.20;;
19434;SDS011;9853;50.848;4.108;2022-08-14T10:12:40;1.10;;;0.90;;
19434;SDS011;9853;50.848;4.108;2022-08-14T10:14:41;3.45;;;1.35;;
19434;SDS011;9853;50.848;4.108;2022-08-14T10:16:45;2.83;;;1.38;;
19434;SDS011;9853;50.848;4.108;2022-08-14T10:18:48;2.25;;;1.65;;
19434;SDS011;9853;50.848;4.108;2022-08-14T10:21:00;5.07;;;1.25;;
19434;SDS011;9853;50.848;4.108;2022-08-14T10:23:17;5.55;;;1.23;;
19434;SDS011;9853;50.848;4.108;2022-08-14T10:25:19;1.77;;;1.20;;
19434;SDS011;9853;50.848;4.108;2022-08-14T10:27:24;2.10;;;1.30;;
19434;SDS011;9853;50.848;4.108;2022-08-14T10:31:33;1.77;;;1.00;;
19434;SDS011;9853;50.848;4.108;2022-08-14T10:33:37;7.88;;;1.35;;
19434;SDS011;9853;50.848;4.108;2022-08-14T10:35:38;4.57;;;1.05;;
19434;SDS011;9853;50.848;4.108;2022-08-14T10:39:59;4.88;;;1.00;;
19434;SDS011;9853;50.848;4.108;2022-08-14T10:42:04;3.60;;;1.17;;
19434;SDS011;9853;50.848;4.108;2022-08-14T10:44:09;2.92;;;1.10;;
19434;SDS011;9853;50.848;4.108;2022-08-14T10:46:14;4.05;;;1.10;;
19434;SDS011;9853;50.848;4.108;2022-08-14T10:48:17;2.55;;;1.17;;
19434;SDS011;9853;50.848;4.108;2022-08-14T10:52:29;1.80;;;1.08;;
19434;SDS011;9853;50.848;4.108;2022-08-14T10:56:36;5.45;;;1.20;;
19434;SDS011;9853;50.848;4.108;2022-08-14T10:58:37;1.45;;;1.23;;
19434;SDS011;9853;50.848;4.108;2022-08-14T11:00:39;3.40;;;1.27;;
19434;SDS011;9853;50.848;4.108;2022-08-14T11:02:41;4.40;;;1.20;;
19434;SDS011;9853;50.848;4.108;2022-08-14T11:04:42;3.20;;;1.30;;
19434;SDS011;9853;50.848;4.108;2022-08-14T11:06:50;6.40;;;1.38;;
19434;SDS011;9853;50.848;4.108;2022-08-14T11:08:54;2.22;;;1.20;;
19434;SDS011;9853;50.848;4.108;2022-08-14T11:10:57;3.72;;;1.30;;
19434;SDS011;9853;50.848;4.108;2022-08-14T11:13:02;1.98;;;1.30;;
19434;SDS011;9853;50.848;4.108;2022-08-14T11:15:04;3.47;;;1.30;;
19434;SDS011;9853;50.848;4.108;2022-08-14T11:17:05;2.97;;;1.25;;
19434;SDS011;9853;50.848;4.108;2022-08-14T11:19:06;5.70;;;1.20;;
19434;SDS011;9853;50.848;4.108;2022-08-14T11:21:11;4.70;;;1.40;;
19434;SDS011;9853;50.848;4.108;2022-08-14T11:23:15;2.05;;;1.40;;
19434;SDS011;9853;50.848;4.108;2022-08-14T11:25:19;4.15;;;1.20;;
19434;SDS011;9853;50.848;4.108;2022-08-14T11:27:22;2.42;;;1.40;;
19434;SDS011;9853;50.848;4.108;2022-08-14T11:29:24;2.47;;;1.35;;
19434;SDS011;9853;50.848;4.108;2022-08-14T11:31:25;2.15;;;1.10;;
19434;SDS011;9853;50.848;4.108;2022-08-14T11:33:31;3.28;;;1.40;;
19434;SDS011;9853;50.848;4.108;2022-08-14T11:35:33;2.00;;;1.15;;
19434;SDS011;9853;50.848;4.108;2022-08-14T11:37:36;4.25;;;1.10;;
19434;SDS011;9853;50.848;4.108;2022-08-14T11:39:38;7.05;;;1.60;;
19434;SDS011;9853;50.848;4.108;2022-08-14T11:41:39;2.03;;;1.10;;
19434;SDS011;9853;50.848;4.108;2022-08-14T11:43:41;5.13;;;1.25;;
19434;SDS011;9853;50.848;4.108;2022-08-14T11:45:44;1.60;;;1.25;;
19434;SDS011;9853;50.848;4.108;2022-08-14T11:47:48;1.30;;;1.20;;
19434;SDS011;9853;50.848;4.108;2022-08-14T11:49:49;10.95;;;1.20;;
19434;SDS011;9853;50.848;4.108;2022-08-14T11:51:53;4.97;;;1.23;;
19434;SDS011;9853;50.848;4.108;2022-08-14T11:53:55;3.75;;;1.30;;
19434;SDS011;9853;50.848;4.108;2022-08-14T11:56:05;3.67;;;1.20;;
19434;SDS011;9853;50.848;4.108;2022-08-14T11:58:07;1.85;;;1.20;;
19434;SDS011;9853;50.848;4.108;2022-08-14T12:00:10;1.60;;;1.23;;
19434;SDS011;9853;50.848;4.108;2022-08-14T12:02:16;1.60;;;1.20;;
19434;SDS011;9853;50.848;4.108;2022-08-14T12:04:17;2.20;;;1.05;;
19434;SDS011;9853;50.848;4.108;2022-08-14T12:06:19;2.92;;;1.27;;
19434;SDS011;9853;50.848;4.108;2022-08-14T12:08:20;5.40;;;1.00;;
19434;SDS011;9853;50.848;4.108;2022-08-14T12:10:35;1.70;;;0.93;;
19434;SDS011;9853;50.848;4.108;2022-08-14T12:12:37;2.35;;;1.02;;
19434;SDS011;9853;50.848;4.108;2022-08-14T12:14:54;2.17;;;0.90;;
19434;SDS011;9853;50.848;4.108;2022-08-14T12:16:57;5.07;;;0.90;;
19434;SDS011;9853;50.848;4.108;2022-08-14T12:19:05;3.95;;;0.90;;
19434;SDS011;9853;50.848;4.108;2022-08-14T12:23:24;4.82;;;1.25;;
19434;SDS011;9853;50.848;4.108;2022-08-14T12:25:25;2.33;;;1.20;;
19434;SDS011;9853;50.848;4.108;2022-08-14T12:27:40;5.70;;;1.17;;
19434;SDS011;9853;50.848;4.108;2022-08-14T12:29:51;2.28;;;1.05;;
19434;SDS011;9853;50.848;4.108;2022-08-14T12:31:59;3.75;;;1.05;;
19434;SDS011;9853;50.848;4.108;2022-08-14T12:34:06;4.65;;;1.00;;
19434;SDS011;9853;50.848;4.108;2022-08-14T12:36:08;7.53;;;1.00;;
19434;SDS011;9853;50.848;4.108;2022-08-14T12:38:40;1.35;;;1.20;;
19434;SDS011;9853;50.848;4.108;2022-08-14T12:40:49;1.58;;;0.93;;
19434;SDS011;9853;50.848;4.108;2022-08-14T12:42:51;3.65;;;1.13;;
19434;SDS011;9853;50.848;4.108;2022-08-14T12:44:58;6.30;;;1.08;;
19434;SDS011;9853;50.848;4.108;2022-08-14T12:47:07;1.27;;;1.10;;
19434;SDS011;9853;50.848;4.108;2022-08-14T12:49:14;2.33;;;0.90;;